sensor_id;sensor_type;location;lat;lon;timestamp;P1;durP1;ratioP1;P2;durP2;ratioP2
25439;SDS011;13365;52.208;5.488;2023-05-10T00:01:03;9.32;;;5.57;;
25439;SDS011;13365;52.208;5.488;2023-05-10T00:03:29;14.20;;;4.78;;
25439;SDS011;13365;52.208;5.488;2023-05-10T00:05:54;7.38;;;4.00;;
25439;SDS011;13365;52.208;5.488;2023-05-10T00:08:20;9.20;;;5.65;;
25439;SDS011;13365;52.208;5.488;2023-05-10T00:10:46;10.15;;;5.07;;
25439;SDS011;13365;52.208;5.488;2023-05-10T00:13:11;10.40;;;5.70;;
25439;SDS011;13365;52.208;5.488;2023-05-10T00:15:37;7.35;;;4.53;;
25439;SDS011;13365;52.208;5.488;2023-05-10T00:18:02;10.93;;;6.22;;
25439;SDS011;13365;52.208;5.488;2023-05-10T00:20:28;7.18;;;4.38;;
25439;SDS011;13365;52.208;5.488;2023-05-10T00:22:55;9.05;;;5.45;;
25439;SDS011;13365;52.208;5.488;2023-05-10T00:25:20;8.85;;;4.70;;
25439;SDS011;13365;52.208;5.488;2023-05-10T00:27:46;9.48;;;4.70;;
25439;SDS011;13365;52.208;5.488;2023-05-10T00:30:12;10.77;;;6.53;;
25439;SDS011;13365;52.208;5.488;2023-05-10T00:32:38;8.85;;;5.50;;
25439;SDS011;13365;52.208;5.488;2023-05-10T00:35:04;11.50;;;5.68;;
25439;SDS011;13365;52.208;5.488;2023-05-10T00:37:30;10.65;;;5.68;;
25439;SDS011;13365;52.208;5.488;2023-05-10T00:39:55;8.13;;;4.85;;
25439;SDS011;13365;52.208;5.488;2023-05-10T00:42:21;18.05;;;6.50;;
25439;SDS011;13365;52.208;5.488;2023-05-10T00:44:47;12.45;;;6.28;;
25439;SDS011;13365;52.208;5.488;2023-05-10T00:47:12;9.80;;;6.38;;
25439;SDS011;13365;52.208;5.488;2023-05-10T00:49:38;9.10;;;4.47;;
25439;SDS011;13365;52.208;5.488;2023-05-10T00:52:04;7.57;;;4.40;;
25439;SDS011;13365;52.208;5.488;2023-05-10T00:54:29;11.63;;;6.20;;
25439;SDS011;13365;52.208;5.488;2023-05-10T00:56:55;12.48;;;6.57;;
25439;SDS011;13365;52.208;5.488;2023-05-10T00:59:22;9.05;;;5.70;;
25439;SDS011;13365;52.208;5.488;2023-05-10T01:01:47;10.52;;;6.15;;
25439;SDS011;13365;52.208;5.488;2023-05-10T01:04:13;11.50;;;6.13;;
25439;SDS011;13365;52.208;5.488;2023-05-10T01:06:40;12.73;;;5.95;;
25439;SDS011;13365;52.208;5.488;2023-05-10T01:09:08;13.35;;;7.38;;
25439;SDS011;13365;52.208;5.488;2023-05-10T01:11:34;12.05;;;6.30;;
25439;SDS011;13365;52.208;5.488;2023-05-10T01:14:01;13.05;;;6.45;;
25439;SDS011;13365;52.208;5.488;2023-05-10T01:16:27;12.32;;;5.90;;
25439;SDS011;13365;52.208;5.488;2023-05-10T01:18:54;11.50;;;6.65;;
25439;SDS011;13365;52.208;5.488;2023-05-10T01:21:27;14.55;;;8.20;;
25439;SDS011;13365;52.208;5.488;2023-05-10T01:24:09;28.15;;;8.80;;
25439;SDS011;13365;52.208;5.488;2023-05-10T01:29:35;18.02;;;8.85;;
25439;SDS011;13365;52.208;5.488;2023-05-10T01:32:09;21.30;;;9.25;;
25439;SDS011;13365;52.208;5.488;2023-05-10T01:34:54;13.38;;;7.45;;
25439;SDS011;13365;52.208;5.488;2023-05-10T01:37:33;16.83;;;8.73;;
25439;SDS011;13365;52.208;5.488;2023-05-10T01:40:30;15.95;;;8.73;;
25439;SDS011;13365;52.208;5.488;2023-05-10T01:43:02;21.20;;;9.73;;
25439;SDS011;13365;52.208;5.488;2023-05-10T01:45:37;21.55;;;10.35;;
25439;SDS011;13365;52.208;5.488;2023-05-10T01:48:10;19.17;;;10.52;;
25439;SDS011;13365;52.208;5.488;2023-05-10T01:50:38;15.77;;;8.80;;
25439;SDS011;13365;52.208;5.488;2023-05-10T01:53:08;21.50;;;10.07;;
25439;SDS011;13365;52.208;5.488;2023-05-10T01:55:50;16.85;;;8.40;;
25439;SDS011;13365;52.208;5.488;2023-05-10T01:58:20;14.90;;;7.28;;
25439;SDS011;13365;52.208;5.488;2023-05-10T02:00:48;16.35;;;8.68;;
25439;SDS011;13365;52.208;5.488;2023-05-10T02:03:15;18.15;;;8.57;;
25439;SDS011;13365;52.208;5.488;2023-05-10T02:05:43;18.30;;;9.27;;
25439;SDS011;13365;52.208;5.488;2023-05-10T02:08:11;20.08;;;9.73;;
25439;SDS011;13365;52.208;5.488;2023-05-10T02:10:38;20.33;;;11.20;;
25439;SDS011;13365;52.208;5.488;2023-05-10T02:13:05;20.77;;;10.65;;
25439;SDS011;13365;52.208;5.488;2023-05-10T02:15:33;18.55;;;10.13;;
25439;SDS011;13365;52.208;5.488;2023-05-10T02:18:00;19.30;;;9.00;;
25439;SDS011;13365;52.208;5.488;2023-05-10T02:20:27;20.85;;;11.15;;
25439;SDS011;13365;52.208;5.488;2023-05-10T02:22:54;24.60;;;10.63;;
25439;SDS011;13365;52.208;5.488;2023-05-10T02:25:21;19.58;;;10.90;;
25439;SDS011;13365;52.208;5.488;2023-05-10T02:27:48;22.48;;;11.45;;
25439;SDS011;13365;52.208;5.488;2023-05-10T02:30:15;22.90;;;10.35;;
25439;SDS011;13365;52.208;5.488;2023-05-10T02:32:43;21.17;;;10.50;;
25439;SDS011;13365;52.208;5.488;2023-05-10T02:35:09;22.55;;;10.85;;
25439;SDS011;13365;52.208;5.488;2023-05-10T02:37:36;20.50;;;10.35;;
25439;SDS011;13365;52.208;5.488;2023-05-10T02:40:03;20.77;;;9.85;;
25439;SDS011;13365;52.208;5.488;2023-05-10T02:42:31;22.20;;;11.18;;
25439;SDS011;13365;52.208;5.488;2023-05-10T02:45:00;25.75;;;11.35;;
25439;SDS011;13365;52.208;5.488;2023-05-10T02:47:29;24.70;;;11.98;;
25439;SDS011;13365;52.208;5.488;2023-05-10T02:49:56;26.55;;;12.60;;
25439;SDS011;13365;52.208;5.488;2023-05-10T02:52:23;23.67;;;10.85;;
25439;SDS011;13365;52.208;5.488;2023-05-10T02:54:54;18.40;;;10.77;;
25439;SDS011;13365;52.208;5.488;2023-05-10T02:57:25;24.25;;;10.48;;
25439;SDS011;13365;52.208;5.488;2023-05-10T02:59:53;20.93;;;9.67;;
25439;SDS011;13365;52.208;5.488;2023-05-10T03:02:20;20.70;;;9.55;;
25439;SDS011;13365;52.208;5.488;2023-05-10T03:04:45;22.08;;;9.95;;
25439;SDS011;13365;52.208;5.488;2023-05-10T03:07:11;21.33;;;11.23;;
25439;SDS011;13365;52.208;5.488;2023-05-10T03:09:37;23.40;;;11.45;;
25439;SDS011;13365;52.208;5.488;2023-05-10T03:17:45;24.33;;;10.07;;
25439;SDS011;13365;52.208;5.488;2023-05-10T03:20:41;27.85;;;11.82;;
25439;SDS011;13365;52.208;5.488;2023-05-10T03:25:36;25.38;;;10.98;;
25439;SDS011;13365;52.208;5.488;2023-05-10T03:28:04;25.10;;;10.93;;
25439;SDS011;13365;52.208;5.488;2023-05-10T03:30:31;24.45;;;10.80;;
25439;SDS011;13365;52.208;5.488;2023-05-10T03:32:57;24.38;;;11.30;;
25439;SDS011;13365;52.208;5.488;2023-05-10T03:35:28;30.40;;;10.45;;
25439;SDS011;13365;52.208;5.488;2023-05-10T03:37:54;29.20;;;12.88;;
25439;SDS011;13365;52.208;5.488;2023-05-10T03:40:19;27.83;;;11.18;;
25439;SDS011;13365;52.208;5.488;2023-05-10T03:42:45;26.27;;;13.20;;
25439;SDS011;13365;52.208;5.488;2023-05-10T03:45:11;27.00;;;11.93;;
25439;SDS011;13365;52.208;5.488;2023-05-10T03:47:36;34.47;;;13.25;;
25439;SDS011;13365;52.208;5.488;2023-05-10T03:50:02;30.85;;;12.23;;
25439;SDS011;13365;52.208;5.488;2023-05-10T03:52:27;28.17;;;11.77;;
25439;SDS011;13365;52.208;5.488;2023-05-10T03:54:53;31.45;;;13.35;;
25439;SDS011;13365;52.208;5.488;2023-05-10T03:57:19;44.60;;;15.10;;
25439;SDS011;13365;52.208;5.488;2023-05-10T03:59:44;34.63;;;13.75;;
25439;SDS011;13365;52.208;5.488;2023-05-10T04:02:10;29.85;;;11.68;;
25439;SDS011;13365;52.208;5.488;2023-05-10T04:04:35;28.48;;;11.10;;
25439;SDS011;13365;52.208;5.488;2023-05-10T04:07:01;33.15;;;11.93;;
25439;SDS011;13365;52.208;5.488;2023-05-10T04:09:26;35.47;;;13.60;;
25439;SDS011;13365;52.208;5.488;2023-05-10T04:11:52;33.55;;;11.52;;
25439;SDS011;13365;52.208;5.488;2023-05-10T04:14:17;25.90;;;12.18;;
25439;SDS011;13365;52.208;5.488;2023-05-10T04:16:43;29.98;;;13.45;;
25439;SDS011;13365;52.208;5.488;2023-05-10T04:19:08;38.08;;;11.93;;
25439;SDS011;13365;52.208;5.488;2023-05-10T04:21:34;33.50;;;11.98;;
25439;SDS011;13365;52.208;5.488;2023-05-10T04:24:00;30.65;;;13.30;;
25439;SDS011;13365;52.208;5.488;2023-05-10T04:26:25;33.92;;;12.18;;
25439;SDS011;13365;52.208;5.488;2023-05-10T04:28:51;38.83;;;15.23;;
25439;SDS011;13365;52.208;5.488;2023-05-10T04:31:16;30.52;;;11.65;;
25439;SDS011;13365;52.208;5.488;2023-05-10T04:33:42;30.33;;;12.70;;
25439;SDS011;13365;52.208;5.488;2023-05-10T04:36:07;45.25;;;14.43;;
25439;SDS011;13365;52.208;5.488;2023-05-10T04:38:33;35.17;;;12.70;;
25439;SDS011;13365;52.208;5.488;2023-05-10T04:41:05;32.75;;;13.57;;
25439;SDS011;13365;52.208;5.488;2023-05-10T04:43:32;39.60;;;15.68;;
25439;SDS011;13365;52.208;5.488;2023-05-10T04:45:58;35.78;;;15.13;;
25439;SDS011;13365;52.208;5.488;2023-05-10T04:48:23;34.55;;;14.63;;
25439;SDS011;13365;52.208;5.488;2023-05-10T04:50:49;37.50;;;15.23;;
25439;SDS011;13365;52.208;5.488;2023-05-10T04:53:14;34.83;;;14.65;;
25439;SDS011;13365;52.208;5.488;2023-05-10T04:55:40;32.28;;;13.45;;
25439;SDS011;13365;52.208;5.488;2023-05-10T04:58:05;38.92;;;13.82;;
25439;SDS011;13365;52.208;5.488;2023-05-10T05:00:31;32.63;;;14.57;;
25439;SDS011;13365;52.208;5.488;2023-05-10T05:02:58;28.90;;;12.20;;
25439;SDS011;13365;52.208;5.488;2023-05-10T05:05:24;36.25;;;15.25;;
25439;SDS011;13365;52.208;5.488;2023-05-10T05:07:49;35.63;;;13.82;;
25439;SDS011;13365;52.208;5.488;2023-05-10T05:10:15;29.55;;;13.35;;
25439;SDS011;13365;52.208;5.488;2023-05-10T05:12:41;33.22;;;14.63;;
25439;SDS011;13365;52.208;5.488;2023-05-10T05:15:07;37.50;;;14.15;;
25439;SDS011;13365;52.208;5.488;2023-05-10T05:17:34;35.33;;;14.38;;
25439;SDS011;13365;52.208;5.488;2023-05-10T05:20:00;34.38;;;13.25;;
25439;SDS011;13365;52.208;5.488;2023-05-10T05:22:26;35.40;;;14.23;;
25439;SDS011;13365;52.208;5.488;2023-05-10T05:24:54;31.33;;;13.05;;
25439;SDS011;13365;52.208;5.488;2023-05-10T05:27:20;35.25;;;14.35;;
25439;SDS011;13365;52.208;5.488;2023-05-10T05:29:49;35.42;;;13.75;;
25439;SDS011;13365;52.208;5.488;2023-05-10T05:32:18;33.47;;;12.50;;
25439;SDS011;13365;52.208;5.488;2023-05-10T05:34:46;47.38;;;11.63;;
25439;SDS011;13365;52.208;5.488;2023-05-10T05:37:13;26.27;;;10.52;;
25439;SDS011;13365;52.208;5.488;2023-05-10T05:39:42;27.30;;;12.50;;
25439;SDS011;13365;52.208;5.488;2023-05-10T05:42:08;33.85;;;13.55;;
25439;SDS011;13365;52.208;5.488;2023-05-10T05:44:34;36.88;;;13.82;;
25439;SDS011;13365;52.208;5.488;2023-05-10T05:47:00;28.83;;;11.30;;
25439;SDS011;13365;52.208;5.488;2023-05-10T05:49:25;26.05;;;13.13;;
25439;SDS011;13365;52.208;5.488;2023-05-10T05:51:51;30.63;;;12.35;;
25439;SDS011;13365;52.208;5.488;2023-05-10T05:54:17;32.55;;;12.40;;
25439;SDS011;13365;52.208;5.488;2023-05-10T05:56:42;25.52;;;10.95;;
25439;SDS011;13365;52.208;5.488;2023-05-10T05:59:09;23.48;;;11.57;;
25439;SDS011;13365;52.208;5.488;2023-05-10T06:01:35;30.40;;;11.63;;
25439;SDS011;13365;52.208;5.488;2023-05-10T06:04:00;29.13;;;10.27;;
25439;SDS011;13365;52.208;5.488;2023-05-10T06:06:26;30.45;;;12.48;;
25439;SDS011;13365;52.208;5.488;2023-05-10T06:08:52;32.88;;;11.68;;
25439;SDS011;13365;52.208;5.488;2023-05-10T06:11:18;30.38;;;11.02;;
25439;SDS011;13365;52.208;5.488;2023-05-10T06:13:43;30.65;;;12.40;;
25439;SDS011;13365;52.208;5.488;2023-05-10T06:16:09;30.08;;;12.27;;
25439;SDS011;13365;52.208;5.488;2023-05-10T06:18:35;30.27;;;12.00;;
25439;SDS011;13365;52.208;5.488;2023-05-10T06:21:00;35.38;;;14.13;;
25439;SDS011;13365;52.208;5.488;2023-05-10T06:23:26;30.63;;;13.07;;
25439;SDS011;13365;52.208;5.488;2023-05-10T06:25:52;22.33;;;10.80;;
25439;SDS011;13365;52.208;5.488;2023-05-10T06:28:17;30.63;;;11.27;;
25439;SDS011;13365;52.208;5.488;2023-05-10T06:30:43;30.90;;;11.38;;
25439;SDS011;13365;52.208;5.488;2023-05-10T06:33:09;21.75;;;9.98;;
25439;SDS011;13365;52.208;5.488;2023-05-10T06:35:35;23.00;;;9.55;;
25439;SDS011;13365;52.208;5.488;2023-05-10T06:38:01;22.45;;;9.30;;
25439;SDS011;13365;52.208;5.488;2023-05-10T06:40:27;20.48;;;10.07;;
25439;SDS011;13365;52.208;5.488;2023-05-10T06:42:52;19.65;;;7.88;;
25439;SDS011;13365;52.208;5.488;2023-05-10T06:45:18;33.63;;;9.77;;
25439;SDS011;13365;52.208;5.488;2023-05-10T06:47:43;21.42;;;8.98;;
25439;SDS011;13365;52.208;5.488;2023-05-10T06:50:09;15.60;;;7.30;;
25439;SDS011;13365;52.208;5.488;2023-05-10T06:52:38;23.48;;;8.38;;
25439;SDS011;13365;52.208;5.488;2023-05-10T06:55:04;18.95;;;8.88;;
25439;SDS011;13365;52.208;5.488;2023-05-10T06:57:30;22.55;;;9.70;;
25439;SDS011;13365;52.208;5.488;2023-05-10T06:59:58;18.98;;;8.85;;
25439;SDS011;13365;52.208;5.488;2023-05-10T07:02:24;13.43;;;7.03;;
25439;SDS011;13365;52.208;5.488;2023-05-10T07:04:49;30.60;;;10.63;;
25439;SDS011;13365;52.208;5.488;2023-05-10T07:07:16;20.08;;;9.35;;
25439;SDS011;13365;52.208;5.488;2023-05-10T07:09:42;30.08;;;9.13;;
25439;SDS011;13365;52.208;5.488;2023-05-10T07:12:07;17.42;;;8.95;;
25439;SDS011;13365;52.208;5.488;2023-05-10T07:14:33;21.70;;;8.25;;
25439;SDS011;13365;52.208;5.488;2023-05-10T07:16:58;17.13;;;8.95;;
25439;SDS011;13365;52.208;5.488;2023-05-10T07:19:24;19.65;;;9.85;;
25439;SDS011;13365;52.208;5.488;2023-05-10T07:21:49;23.50;;;8.85;;
25439;SDS011;13365;52.208;5.488;2023-05-10T07:24:15;22.10;;;8.15;;
25439;SDS011;13365;52.208;5.488;2023-05-10T07:26:41;20.55;;;9.23;;
25439;SDS011;13365;52.208;5.488;2023-05-10T07:29:06;26.55;;;8.82;;
25439;SDS011;13365;52.208;5.488;2023-05-10T07:31:32;26.52;;;8.77;;
25439;SDS011;13365;52.208;5.488;2023-05-10T07:33:57;16.65;;;8.10;;
25439;SDS011;13365;52.208;5.488;2023-05-10T07:36:23;15.80;;;7.32;;
25439;SDS011;13365;52.208;5.488;2023-05-10T07:38:49;11.55;;;6.85;;
25439;SDS011;13365;52.208;5.488;2023-05-10T07:41:14;10.93;;;6.38;;
25439;SDS011;13365;52.208;5.488;2023-05-10T07:43:40;10.23;;;5.38;;
25439;SDS011;13365;52.208;5.488;2023-05-10T07:46:06;12.32;;;5.95;;
25439;SDS011;13365;52.208;5.488;2023-05-10T07:48:31;11.48;;;5.93;;
25439;SDS011;13365;52.208;5.488;2023-05-10T07:50:57;12.73;;;5.93;;
25439;SDS011;13365;52.208;5.488;2023-05-10T07:53:22;16.02;;;7.13;;
25439;SDS011;13365;52.208;5.488;2023-05-10T07:55:51;15.27;;;6.28;;
25439;SDS011;13365;52.208;5.488;2023-05-10T07:58:21;16.00;;;6.85;;
25439;SDS011;13365;52.208;5.488;2023-05-10T08:00:47;15.48;;;6.95;;
25439;SDS011;13365;52.208;5.488;2023-05-10T08:03:14;13.35;;;6.88;;
25439;SDS011;13365;52.208;5.488;2023-05-10T08:05:39;10.48;;;5.53;;
25439;SDS011;13365;52.208;5.488;2023-05-10T08:08:05;13.65;;;6.18;;
25439;SDS011;13365;52.208;5.488;2023-05-10T08:10:31;10.93;;;6.05;;
25439;SDS011;13365;52.208;5.488;2023-05-10T08:12:56;11.98;;;5.70;;
25439;SDS011;13365;52.208;5.488;2023-05-10T08:15:23;12.20;;;4.85;;
25439;SDS011;13365;52.208;5.488;2023-05-10T08:17:50;8.60;;;5.18;;
25439;SDS011;13365;52.208;5.488;2023-05-10T08:20:16;22.30;;;7.10;;
25439;SDS011;13365;52.208;5.488;2023-05-10T08:22:44;24.20;;;7.00;;
25439;SDS011;13365;52.208;5.488;2023-05-10T08:25:10;37.17;;;7.93;;
25439;SDS011;13365;52.208;5.488;2023-05-10T08:27:36;25.92;;;4.90;;
25439;SDS011;13365;52.208;5.488;2023-05-10T08:30:01;9.45;;;4.05;;
25439;SDS011;13365;52.208;5.488;2023-05-10T08:32:27;8.15;;;3.97;;
25439;SDS011;13365;52.208;5.488;2023-05-10T08:34:52;13.48;;;5.72;;
25439;SDS011;13365;52.208;5.488;2023-05-10T08:37:18;9.02;;;4.35;;
25439;SDS011;13365;52.208;5.488;2023-05-10T08:39:43;23.52;;;5.43;;
25439;SDS011;13365;52.208;5.488;2023-05-10T08:42:10;7.28;;;3.95;;
25439;SDS011;13365;52.208;5.488;2023-05-10T08:44:37;10.73;;;5.60;;
25439;SDS011;13365;52.208;5.488;2023-05-10T08:47:04;18.33;;;5.10;;
25439;SDS011;13365;52.208;5.488;2023-05-10T08:49:33;8.38;;;4.65;;
25439;SDS011;13365;52.208;5.488;2023-05-10T08:51:59;7.30;;;3.60;;
25439;SDS011;13365;52.208;5.488;2023-05-10T08:54:29;9.25;;;4.47;;
25439;SDS011;13365;52.208;5.488;2023-05-10T08:56:56;9.10;;;3.95;;
25439;SDS011;13365;52.208;5.488;2023-05-10T08:59:22;6.70;;;4.05;;
25439;SDS011;13365;52.208;5.488;2023-05-10T09:01:47;7.40;;;4.32;;
25439;SDS011;13365;52.208;5.488;2023-05-10T09:04:15;6.07;;;3.17;;
25439;SDS011;13365;52.208;5.488;2023-05-10T09:06:40;6.93;;;4.07;;
25439;SDS011;13365;52.208;5.488;2023-05-10T09:09:06;15.73;;;4.55;;
25439;SDS011;13365;52.208;5.488;2023-05-10T09:11:33;19.30;;;7.03;;
25439;SDS011;13365;52.208;5.488;2023-05-10T09:13:59;33.58;;;6.30;;
25439;SDS011;13365;52.208;5.488;2023-05-10T09:16:25;9.93;;;4.45;;
25439;SDS011;13365;52.208;5.488;2023-05-10T09:18:51;5.15;;;3.00;;
25439;SDS011;13365;52.208;5.488;2023-05-10T09:21:17;7.32;;;3.45;;
25439;SDS011;13365;52.208;5.488;2023-05-10T09:23:47;4.78;;;2.72;;
25439;SDS011;13365;52.208;5.488;2023-05-10T09:26:14;5.90;;;3.45;;
25439;SDS011;13365;52.208;5.488;2023-05-10T09:28:53;7.15;;;3.70;;
25439;SDS011;13365;52.208;5.488;2023-05-10T09:31:21;6.53;;;3.13;;
25439;SDS011;13365;52.208;5.488;2023-05-10T09:33:47;5.38;;;2.58;;
25439;SDS011;13365;52.208;5.488;2023-05-10T09:36:13;5.15;;;2.60;;
25439;SDS011;13365;52.208;5.488;2023-05-10T09:38:46;4.07;;;2.97;;
25439;SDS011;13365;52.208;5.488;2023-05-10T09:41:20;4.30;;;2.42;;
25439;SDS011;13365;52.208;5.488;2023-05-10T09:43:49;5.82;;;2.67;;
25439;SDS011;13365;52.208;5.488;2023-05-10T09:46:15;4.25;;;2.33;;
25439;SDS011;13365;52.208;5.488;2023-05-10T09:48:47;4.68;;;2.60;;
25439;SDS011;13365;52.208;5.488;2023-05-10T09:51:19;2.78;;;2.05;;
25439;SDS011;13365;52.208;5.488;2023-05-10T09:54:08;4.35;;;1.95;;
25439;SDS011;13365;52.208;5.488;2023-05-10T09:56:38;4.47;;;1.48;;
25439;SDS011;13365;52.208;5.488;2023-05-10T09:59:05;3.45;;;1.80;;
25439;SDS011;13365;52.208;5.488;2023-05-10T10:01:33;2.80;;;1.67;;
25439;SDS011;13365;52.208;5.488;2023-05-10T10:03:59;3.13;;;1.83;;
25439;SDS011;13365;52.208;5.488;2023-05-10T10:06:37;5.00;;;1.67;;
25439;SDS011;13365;52.208;5.488;2023-05-10T10:09:04;5.85;;;1.88;;
25439;SDS011;13365;52.208;5.488;2023-05-10T10:11:31;2.60;;;1.80;;
25439;SDS011;13365;52.208;5.488;2023-05-10T10:13:57;5.57;;;2.10;;
25439;SDS011;13365;52.208;5.488;2023-05-10T10:16:23;5.13;;;2.40;;
25439;SDS011;13365;52.208;5.488;2023-05-10T10:18:50;4.05;;;2.35;;
25439;SDS011;13365;52.208;5.488;2023-05-10T10:21:15;4.88;;;2.20;;
25439;SDS011;13365;52.208;5.488;2023-05-10T10:23:41;3.40;;;2.03;;
25439;SDS011;13365;52.208;5.488;2023-05-10T10:26:08;2.42;;;1.65;;
25439;SDS011;13365;52.208;5.488;2023-05-10T10:31:57;2.83;;;1.67;;
25439;SDS011;13365;52.208;5.488;2023-05-10T10:34:46;2.92;;;2.03;;
25439;SDS011;13365;52.208;5.488;2023-05-10T10:37:12;3.97;;;2.40;;
25439;SDS011;13365;52.208;5.488;2023-05-10T10:39:38;6.68;;;2.45;;
25439;SDS011;13365;52.208;5.488;2023-05-10T10:42:04;5.75;;;2.30;;
25439;SDS011;13365;52.208;5.488;2023-05-10T10:49:32;3.65;;;2.00;;
25439;SDS011;13365;52.208;5.488;2023-05-10T10:54:51;2.88;;;1.65;;
25439;SDS011;13365;52.208;5.488;2023-05-10T10:57:19;6.70;;;2.40;;
25439;SDS011;13365;52.208;5.488;2023-05-10T10:59:46;2.90;;;1.70;;
25439;SDS011;13365;52.208;5.488;2023-05-10T11:05:25;6.13;;;1.80;;
25439;SDS011;13365;52.208;5.488;2023-05-10T11:07:54;5.72;;;2.35;;
25439;SDS011;13365;52.208;5.488;2023-05-10T11:10:21;5.55;;;2.67;;
25439;SDS011;13365;52.208;5.488;2023-05-10T11:13:00;3.17;;;1.80;;
25439;SDS011;13365;52.208;5.488;2023-05-10T11:17:57;4.15;;;2.40;;
25439;SDS011;13365;52.208;5.488;2023-05-10T11:20:23;5.53;;;1.88;;
25439;SDS011;13365;52.208;5.488;2023-05-10T11:22:58;3.85;;;1.85;;
25439;SDS011;13365;52.208;5.488;2023-05-10T11:25:39;3.90;;;2.30;;
25439;SDS011;13365;52.208;5.488;2023-05-10T11:28:09;3.80;;;2.38;;
25439;SDS011;13365;52.208;5.488;2023-05-10T11:30:37;22.13;;;2.25;;
25439;SDS011;13365;52.208;5.488;2023-05-10T11:33:04;6.57;;;2.30;;
25439;SDS011;13365;52.208;5.488;2023-05-10T11:35:31;2.92;;;2.15;;
25439;SDS011;13365;52.208;5.488;2023-05-10T11:38:05;2.70;;;1.35;;
25439;SDS011;13365;52.208;5.488;2023-05-10T11:40:35;2.97;;;1.70;;
25439;SDS011;13365;52.208;5.488;2023-05-10T11:43:02;5.75;;;2.67;;
25439;SDS011;13365;52.208;5.488;2023-05-10T11:45:28;4.22;;;1.95;;
25439;SDS011;13365;52.208;5.488;2023-05-10T11:47:57;3.03;;;2.03;;
25439;SDS011;13365;52.208;5.488;2023-05-10T11:50:22;4.15;;;2.33;;
25439;SDS011;13365;52.208;5.488;2023-05-10T11:52:52;2.25;;;1.50;;
25439;SDS011;13365;52.208;5.488;2023-05-10T11:55:18;2.75;;;1.50;;
25439;SDS011;13365;52.208;5.488;2023-05-10T11:57:44;5.22;;;2.00;;
25439;SDS011;13365;52.208;5.488;2023-05-10T12:00:11;3.05;;;2.05;;
25439;SDS011;13365;52.208;5.488;2023-05-10T12:02:37;3.13;;;2.13;;
25439;SDS011;13365;52.208;5.488;2023-05-10T12:05:03;6.10;;;2.28;;
25439;SDS011;13365;52.208;5.488;2023-05-10T12:07:30;2.85;;;2.10;;
25439;SDS011;13365;52.208;5.488;2023-05-10T12:10:09;5.20;;;2.35;;
25439;SDS011;13365;52.208;5.488;2023-05-10T12:12:37;2.78;;;1.73;;
25439;SDS011;13365;52.208;5.488;2023-05-10T12:15:04;4.25;;;2.17;;
25439;SDS011;13365;52.208;5.488;2023-05-10T12:17:31;2.72;;;1.45;;
25439;SDS011;13365;52.208;5.488;2023-05-10T12:22:46;4.13;;;1.50;;
25439;SDS011;13365;52.208;5.488;2023-05-10T12:25:14;2.97;;;1.65;;
25439;SDS011;13365;52.208;5.488;2023-05-10T12:27:39;4.57;;;1.77;;
25439;SDS011;13365;52.208;5.488;2023-05-10T12:30:05;2.33;;;1.40;;
25439;SDS011;13365;52.208;5.488;2023-05-10T12:32:41;4.25;;;1.10;;
25439;SDS011;13365;52.208;5.488;2023-05-10T12:35:07;3.97;;;1.55;;
25439;SDS011;13365;52.208;5.488;2023-05-10T12:37:33;5.35;;;2.22;;
25439;SDS011;13365;52.208;5.488;2023-05-10T12:40:04;2.60;;;1.30;;
25439;SDS011;13365;52.208;5.488;2023-05-10T12:42:33;3.58;;;1.67;;
25439;SDS011;13365;52.208;5.488;2023-05-10T12:44:59;3.72;;;1.75;;
25439;SDS011;13365;52.208;5.488;2023-05-10T12:47:24;4.22;;;1.50;;
25439;SDS011;13365;52.208;5.488;2023-05-10T12:49:50;3.22;;;1.40;;
25439;SDS011;13365;52.208;5.488;2023-05-10T12:52:16;3.65;;;2.22;;
25439;SDS011;13365;52.208;5.488;2023-05-10T12:54:41;2.72;;;1.38;;
25439;SDS011;13365;52.208;5.488;2023-05-10T12:57:07;5.22;;;1.80;;
25439;SDS011;13365;52.208;5.488;2023-05-10T12:59:32;2.33;;;1.30;;
25439;SDS011;13365;52.208;5.488;2023-05-10T13:01:58;4.18;;;1.40;;
25439;SDS011;13365;52.208;5.488;2023-05-10T13:04:23;1.83;;;0.90;;
25439;SDS011;13365;52.208;5.488;2023-05-10T13:06:49;2.17;;;1.30;;
25439;SDS011;13365;52.208;5.488;2023-05-10T13:09:15;1.25;;;0.70;;
25439;SDS011;13365;52.208;5.488;2023-05-10T13:11:40;2.42;;;1.55;;
25439;SDS011;13365;52.208;5.488;2023-05-10T13:14:06;1.85;;;1.08;;
25439;SDS011;13365;52.208;5.488;2023-05-10T13:16:32;2.65;;;1.20;;
25439;SDS011;13365;52.208;5.488;2023-05-10T13:18:57;1.52;;;1.20;;
25439;SDS011;13365;52.208;5.488;2023-05-10T13:21:23;2.15;;;1.27;;
25439;SDS011;13365;52.208;5.488;2023-05-10T13:23:50;3.83;;;1.13;;
25439;SDS011;13365;52.208;5.488;2023-05-10T13:26:15;2.05;;;1.02;;
25439;SDS011;13365;52.208;5.488;2023-05-10T13:28:41;2.40;;;1.38;;
25439;SDS011;13365;52.208;5.488;2023-05-10T13:31:06;1.30;;;1.00;;
25439;SDS011;13365;52.208;5.488;2023-05-10T13:33:32;1.02;;;0.85;;
25439;SDS011;13365;52.208;5.488;2023-05-10T13:35:58;1.77;;;1.00;;
25439;SDS011;13365;52.208;5.488;2023-05-10T13:38:23;5.07;;;1.63;;
25439;SDS011;13365;52.208;5.488;2023-05-10T13:40:49;2.42;;;0.95;;
25439;SDS011;13365;52.208;5.488;2023-05-10T13:43:17;4.32;;;0.95;;
25439;SDS011;13365;52.208;5.488;2023-05-10T13:45:43;1.48;;;0.75;;
25439;SDS011;13365;52.208;5.488;2023-05-10T13:48:09;2.58;;;1.55;;
25439;SDS011;13365;52.208;5.488;2023-05-10T13:50:34;1.58;;;1.15;;
25439;SDS011;13365;52.208;5.488;2023-05-10T13:53:00;2.97;;;1.25;;
25439;SDS011;13365;52.208;5.488;2023-05-10T13:55:25;1.75;;;1.15;;
25439;SDS011;13365;52.208;5.488;2023-05-10T13:57:51;2.45;;;1.38;;
25439;SDS011;13365;52.208;5.488;2023-05-10T14:00:16;4.32;;;2.20;;
25439;SDS011;13365;52.208;5.488;2023-05-10T14:02:42;6.10;;;2.38;;
25439;SDS011;13365;52.208;5.488;2023-05-10T14:05:08;6.85;;;3.47;;
25439;SDS011;13365;52.208;5.488;2023-05-10T14:07:33;6.30;;;3.17;;
25439;SDS011;13365;52.208;5.488;2023-05-10T14:09:59;8.45;;;3.60;;
25439;SDS011;13365;52.208;5.488;2023-05-10T14:12:25;6.18;;;2.92;;
25439;SDS011;13365;52.208;5.488;2023-05-10T14:14:50;5.50;;;2.25;;
25439;SDS011;13365;52.208;5.488;2023-05-10T14:17:17;9.15;;;3.58;;
25439;SDS011;13365;52.208;5.488;2023-05-10T14:19:42;8.25;;;2.83;;
25439;SDS011;13365;52.208;5.488;2023-05-10T14:22:08;6.32;;;2.72;;
25439;SDS011;13365;52.208;5.488;2023-05-10T14:24:34;4.72;;;2.67;;
25439;SDS011;13365;52.208;5.488;2023-05-10T14:26:59;7.40;;;3.20;;
25439;SDS011;13365;52.208;5.488;2023-05-10T14:29:26;6.25;;;2.80;;
25439;SDS011;13365;52.208;5.488;2023-05-10T14:31:52;5.00;;;2.90;;
25439;SDS011;13365;52.208;5.488;2023-05-10T14:34:17;6.25;;;3.28;;
25439;SDS011;13365;52.208;5.488;2023-05-10T14:36:43;5.82;;;3.00;;
25439;SDS011;13365;52.208;5.488;2023-05-10T14:39:08;6.80;;;3.30;;
25439;SDS011;13365;52.208;5.488;2023-05-10T14:41:35;8.25;;;3.53;;
25439;SDS011;13365;52.208;5.488;2023-05-10T14:44:00;4.97;;;2.72;;
25439;SDS011;13365;52.208;5.488;2023-05-10T14:46:28;11.32;;;2.80;;
25439;SDS011;13365;52.208;5.488;2023-05-10T14:48:54;8.55;;;3.85;;
25439;SDS011;13365;52.208;5.488;2023-05-10T14:51:21;10.73;;;2.97;;
25439;SDS011;13365;52.208;5.488;2023-05-10T14:53:47;9.38;;;2.90;;
25439;SDS011;13365;52.208;5.488;2023-05-10T14:56:14;5.38;;;2.78;;
25439;SDS011;13365;52.208;5.488;2023-05-10T14:58:40;23.80;;;3.45;;
25439;SDS011;13365;52.208;5.488;2023-05-10T15:01:05;5.32;;;1.95;;
25439;SDS011;13365;52.208;5.488;2023-05-10T15:03:31;5.47;;;2.60;;
25439;SDS011;13365;52.208;5.488;2023-05-10T15:05:56;7.20;;;3.88;;